Time;durP1;ratioP1;P1;durP2;ratioP2;P2;SDS_P1;SDS_P2;PMS_P1;PMS_P2;Temp;Humidity;BMP_temperature;BMP_pressure;BME280_temperature;BME280_humidity;BME280_pressure;Samples;Min_cycle;Max_cycle;Signal;HPM_P1;HPM_P2
2021/01/12 00:01:48;;;;;;;164.23;74.45;;;102.80;2022.40;;;;;;5077031;28;20405;-68
2021/01/12 00:04:23;;;;;;;164.30;71.80;;;102.80;2022.40;;;;;;5076860;28;20025;-68
2021/01/12 00:06:54;;;;;;;150.05;71.93;;;102.90;2022.40;;;;;;5076771;28;20051;-68
2021/01/12 00:09:25;;;;;;;161.43;71.32;;;102.90;2022.40;;;;;;5076864;28;20031;-68
2021/01/12 00:11:57;;;;;;;147.10;67.75;;;102.90;2022.40;;;;;;5076977;28;20074;-68
2021/01/12 00:14:35;;;;;;;152.68;66.20;;;102.80;2022.40;;;;;;5076739;28;20017;-68
2021/01/12 00:17:07;;;;;;;176.43;82.68;;;102.80;2048.00;;;;;;5076691;28;20428;-68
2021/01/12 00:19:40;;;;;;;175.70;80.18;;;102.80;2048.00;;;;;;5076872;28;20078;-69
2021/01/12 00:22:19;;;;;;;162.35;73.45;;;102.90;2048.00;;;;;;5076860;28;20039;-68
2021/01/12 00:24:51;;;;;;;151.25;70.45;;;102.90;2022.40;;;;;;5076942;28;20040;-68
2021/01/12 00:27:24;;;;;;;129.02;64.00;;;102.90;2022.40;;;;;;5076883;28;20078;-68
2021/01/12 00:29:55;;;;;;;149.07;70.18;;;102.90;2048.00;;;;;;5076909;28;20024;-69
2021/01/12 00:32:27;;;;;;;143.65;65.65;;;102.90;2048.00;;;;;;5076596;28;20035;-68
2021/01/12 00:34:58;;;;;;;126.32;61.58;;;102.90;2048.00;;;;;;5076118;28;20044;-68
2021/01/12 00:37:30;;;;;;;123.47;59.35;;;102.90;2048.00;;;;;;5076462;28;20478;-69
2021/01/12 00:40:01;;;;;;;133.57;59.15;;;102.90;2022.40;;;;;;5076485;28;20052;-69
2021/01/12 00:42:33;;;;;;;124.38;55.72;;;102.80;2048.00;;;;;;5076455;28;20549;-69
2021/01/12 00:45:05;;;;;;;130.20;59.00;;;102.90;2022.40;;;;;;5075075;28;20038;-69
2021/01/12 00:47:37;;;;;;;137.20;61.28;;;102.80;2022.40;;;;;;5074265;28;20560;-69
2021/01/12 00:50:09;;;;;;;131.25;60.92;;;102.80;2022.40;;;;;;5076303;28;20028;-69
2021/01/12 00:52:40;;;;;;;141.88;62.42;;;102.80;2048.00;;;;;;5076308;28;20104;-68
2021/01/12 00:55:12;;;;;;;137.68;62.78;;;102.80;2048.00;;;;;;5076281;28;20027;-68
2021/01/12 00:57:44;;;;;;;141.05;64.03;;;102.80;2048.00;;;;;;5076257;28;20039;-68
2021/01/12 01:00:16;;;;;;;148.25;66.38;;;102.80;2022.40;;;;;;5076221;28;20074;-69
2021/01/12 01:02:47;;;;;;;142.18;64.38;;;102.90;2022.40;;;;;;5076055;28;20138;-69
2021/01/12 01:05:19;;;;;;;124.65;57.58;;;102.80;2048.00;;;;;;5075679;28;20571;-69
2021/01/12 01:07:51;;;;;;;132.15;56.42;;;102.90;2022.40;;;;;;5074705;28;20406;-68
2021/01/12 01:10:23;;;;;;;126.15;54.78;;;102.90;2022.40;;;;;;5075497;28;20021;-68
2021/01/12 01:12:54;;;;;;;119.25;53.60;;;102.90;2022.40;;;;;;5075409;28;20081;-69
2021/01/12 01:15:26;;;;;;;136.15;56.88;;;102.90;2022.40;;;;;;5075871;28;20104;-69
2021/01/12 01:17:57;;;;;;;122.90;57.50;;;102.90;2022.40;;;;;;5075535;28;20031;-69
2021/01/12 01:20:29;;;;;;;134.50;59.25;;;102.90;2022.40;;;;;;5076075;28;20023;-68
2021/01/12 01:23:00;;;;;;;129.30;59.70;;;102.90;2022.40;;;;;;5075738;28;20076;-69
2021/01/12 01:25:29;;;;;;;127.65;59.15;;;102.90;2022.40;;;;;;5075781;28;20025;-68
2021/01/12 01:28:00;;;;;;;132.75;58.97;;;102.90;2022.40;;;;;;5075506;28;20033;-68
2021/01/12 01:30:32;;;;;;;123.97;56.50;;;102.90;2022.40;;;;;;5075614;28;20036;-69
2021/01/12 01:33:04;;;;;;;130.23;57.67;;;102.80;2048.00;;;;;;5075177;28;20119;-69
2021/01/12 01:35:36;;;;;;;121.45;56.80;;;102.90;2022.40;;;;;;5074949;28;20025;-69
2021/01/12 01:38:16;;;;;;;112.82;53.15;;;102.80;2022.40;;;;;;5075439;28;20111;-69
2021/01/12 01:40:48;;;;;;;122.43;54.65;;;102.80;2022.40;;;;;;5075217;28;20535;-69
2021/01/12 01:43:21;;;;;;;120.72;55.08;;;102.80;2048.00;;;;;;5075335;28;20028;-68
2021/01/12 01:45:54;;;;;;;135.02;61.88;;;102.90;2022.40;;;;;;5073436;28;20045;-69
2021/01/12 01:48:26;;;;;;;135.35;62.72;;;102.90;2048.00;;;;;;5074920;28;20482;-68
2021/01/12 01:51:00;;;;;;;135.55;60.53;;;102.80;2048.00;;;;;;5075229;28;20025;-68
2021/01/12 01:53:36;;;;;;;128.45;58.97;;;102.90;2022.40;;;;;;5074997;28;20044;-68
2021/01/12 01:56:12;;;;;;;124.55;58.78;;;102.90;2022.40;;;;;;5074500;28;20490;-68
2021/01/12 01:58:44;;;;;;;132.68;59.45;;;102.90;2022.40;;;;;;5073594;28;20044;-68
2021/01/12 02:01:15;;;;;;;130.57;62.70;;;102.80;2022.40;;;;;;5075012;28;20032;-68
2021/01/12 02:04:03;;;;;;;127.68;59.67;;;102.80;2022.40;;;;;;5074801;28;20046;-68
2021/01/12 02:06:36;;;;;;;126.65;58.22;;;102.80;2022.40;;;;;;5074373;28;20128;-68
2021/01/12 02:09:22;;;;;;;117.93;56.90;;;102.80;2022.40;;;;;;5074826;28;20378;-68
2021/01/12 02:12:03;;;;;;;121.82;57.20;;;102.80;2022.40;;;;;;5074873;28;20382;-68
2021/01/12 02:14:40;;;;;;;119.13;56.30;;;102.80;2022.40;;;;;;5074792;28;20033;-68
2021/01/12 02:17:11;;;;;;;118.75;56.28;;;102.80;2048.00;;;;;;5074529;28;20031;-68
2021/01/12 02:19:43;;;;;;;119.47;56.50;;;102.80;2048.00;;;;;;5072847;28;20032;-68
2021/01/12 02:22:22;;;;;;;118.47;54.33;;;102.80;2048.00;;;;;;5074556;28;20020;-69
2021/01/12 02:24:55;;;;;;;114.28;54.45;;;102.80;2022.40;;;;;;5073751;28;20048;-69
2021/01/12 02:27:27;;;;;;;122.82;58.17;;;102.90;2048.00;;;;;;5074248;28;20033;-69
2021/01/12 02:29:58;;;;;;;131.68;60.10;;;102.90;2022.40;;;;;;5074410;28;20023;-68
2021/01/12 02:32:30;;;;;;;128.75;60.40;;;102.80;2048.00;;;;;;5074177;28;20029;-69
2021/01/12 02:35:02;;;;;;;132.23;62.92;;;102.80;2048.00;;;;;;5074130;28;20463;-69
2021/01/12 02:37:36;;;;;;;138.63;60.35;;;102.90;2022.40;;;;;;5074295;28;20406;-69
2021/01/12 02:40:09;;;;;;;140.57;60.17;;;102.90;2048.00;;;;;;5074176;28;20017;-68
2021/01/12 02:42:45;;;;;;;130.75;58.85;;;102.90;2048.00;;;;;;5073752;28;20035;-69
2021/01/12 02:45:17;;;;;;;136.38;57.40;;;102.90;2048.00;;;;;;5074432;28;20027;-68
2021/01/12 02:47:48;;;;;;;137.23;61.75;;;102.80;2048.00;;;;;;5073931;28;20033;-68
2021/01/12 02:50:19;;;;;;;139.50;59.25;;;102.90;2022.40;;;;;;5073921;28;20090;-68
2021/01/12 02:52:48;;;;;;;155.75;63.38;;;102.90;2048.00;;;;;;5073988;28;20061;-68
2021/01/12 02:55:19;;;;;;;147.77;60.72;;;102.90;2022.40;;;;;;5074112;28;20385;-69
2021/01/12 02:57:49;;;;;;;149.30;63.08;;;102.90;2048.00;;;;;;5073862;28;20028;-69
2021/01/12 03:00:21;;;;;;;145.70;60.92;;;102.90;2048.00;;;;;;5072719;28;20035;-69
2021/01/12 03:02:52;;;;;;;146.25;62.42;;;102.80;2048.00;;;;;;5073959;28;20159;-68
2021/01/12 03:05:24;;;;;;;152.55;63.35;;;102.80;2048.00;;;;;;5073656;28;20132;-68
2021/01/12 03:07:55;;;;;;;146.45;59.40;;;102.80;2048.00;;;;;;5073568;28;20119;-69
2021/01/12 03:10:27;;;;;;;143.82;59.30;;;102.90;2022.40;;;;;;5073769;28;20031;-68
2021/01/12 03:12:58;;;;;;;132.32;58.38;;;102.90;2048.00;;;;;;5073862;28;20147;-67
2021/01/12 03:15:29;;;;;;;138.40;58.20;;;102.80;2048.00;;;;;;5073830;28;20485;-67
2021/01/12 03:18:01;;;;;;;138.98;57.92;;;102.90;2048.00;;;;;;5073453;28;20055;-69
2021/01/12 03:20:33;;;;;;;141.00;60.05;;;102.90;2048.00;;;;;;5073638;28;20028;-68
2021/01/12 03:23:04;;;;;;;141.38;60.67;;;102.80;2048.00;;;;;;5073520;28;20106;-68
2021/01/12 03:25:36;;;;;;;150.88;62.70;;;102.90;2048.00;;;;;;5073688;28;20024;-69
2021/01/12 03:28:07;;;;;;;156.40;63.17;;;102.90;2048.00;;;;;;5073591;28;20061;-69
2021/01/12 03:30:39;;;;;;;130.75;58.42;;;102.90;2048.00;;;;;;5073582;28;20028;-71
2021/01/12 03:33:10;;;;;;;139.05;59.75;;;102.90;2124.80;;;;;;5073355;28;20066;-69
2021/01/12 03:35:42;;;;;;;142.13;61.35;;;102.90;2048.00;;;;;;5076354;28;20036;-69
2021/01/12 03:38:14;;;;;;;147.20;62.42;;;103.00;2048.00;;;;;;5077788;28;20028;-70
2021/01/12 03:40:45;;;;;;;130.00;58.15;;;103.00;2048.00;;;;;;5077804;28;20412;-69
2021/01/12 03:43:17;;;;;;;142.55;60.33;;;102.90;2048.00;;;;;;5077628;28;20044;-69
2021/01/12 03:45:49;;;;;;;140.75;61.28;;;102.90;2048.00;;;;;;5077586;28;20032;-69
2021/01/12 03:48:21;;;;;;;158.38;64.28;;;102.90;2048.00;;;;;;5077218;28;20085;-69
2021/01/12 03:50:52;;;;;;;162.18;65.18;;;102.90;2048.00;;;;;;5077344;28;20031;-69
2021/01/12 03:53:22;;;;;;;155.65;63.13;;;102.90;2048.00;;;;;;5077484;28;20032;-69
2021/01/12 03:55:53;;;;;;;161.50;66.80;;;102.90;2048.00;;;;;;5077450;28;20082;-68
2021/01/12 03:58:24;;;;;;;171.05;66.80;;;102.80;2048.00;;;;;;5077210;28;20025;-70
2021/01/12 04:00:55;;;;;;;174.18;66.47;;;102.80;2048.00;;;;;;5077317;28;20028;-69
2021/01/12 04:03:27;;;;;;;171.02;65.15;;;102.70;2048.00;;;;;;5075652;28;20501;-69
2021/01/12 04:06:00;;;;;;;172.43;66.65;;;102.70;2048.00;;;;;;5076823;28;20512;-69
2021/01/12 04:08:32;;;;;;;169.85;64.57;;;102.70;2073.60;;;;;;5076912;28;20067;-70
2021/01/12 04:11:03;;;;;;;164.40;65.55;;;102.70;2073.60;;;;;;5077183;28;20051;-69
2021/01/12 04:13:35;;;;;;;162.63;65.05;;;102.70;2073.60;;;;;;5077317;28;20116;-70
2021/01/12 04:16:05;;;;;;;162.40;64.40;;;102.70;2073.60;;;;;;5077139;28;20409;-73
2021/01/12 04:18:36;;;;;;;165.57;63.13;;;102.70;2048.00;;;;;;5076647;28;20052;-70
2021/01/12 04:21:08;;;;;;;151.85;65.55;;;102.70;2048.00;;;;;;5076981;28;20028;-69
2021/01/12 04:23:39;;;;;;;151.00;61.58;;;102.70;2048.00;;;;;;5076804;28;20482;-72
2021/01/12 04:26:11;;;;;;;156.98;62.47;;;102.70;2073.60;;;;;;5076872;28;20035;-70
2021/01/12 04:28:42;;;;;;;158.02;63.13;;;102.70;2048.00;;;;;;5076740;28;20032;-69
2021/01/12 04:31:09;;;;;;;151.02;61.42;;;102.70;2048.00;;;;;;5076447;28;20032;-69
2021/01/12 04:33:40;;;;;;;156.93;66.57;;;102.70;2048.00;;;;;;5076448;28;20082;-73
2021/01/12 04:36:11;;;;;;;157.25;66.38;;;102.70;2048.00;;;;;;5076330;28;20027;-70
2021/01/12 04:38:42;;;;;;;152.18;62.88;;;102.70;2073.60;;;;;;5076604;28;20096;-68
2021/01/12 04:41:15;;;;;;;174.95;65.07;;;102.80;2073.60;;;;;;5076704;28;20033;-75
2021/01/12 04:43:46;;;;;;;167.27;67.30;;;102.80;2073.60;;;;;;5076561;28;20362;-67
2021/01/12 04:46:17;;;;;;;169.18;65.30;;;102.70;2073.60;;;;;;5075189;28;20050;-68
2021/01/12 04:48:59;;;;;;;167.27;66.32;;;102.70;2073.60;;;;;;5076400;28;20036;-69
2021/01/12 04:51:30;;;;;;;162.27;65.57;;;102.70;2073.60;;;;;;5076420;28;20032;-75
2021/01/12 04:54:02;;;;;;;167.02;66.65;;;102.90;2073.60;;;;;;5076415;28;20028;-68
2021/01/12 04:56:33;;;;;;;150.98;62.65;;;102.80;2073.60;;;;;;5076228;28;20123;-71
2021/01/12 04:59:05;;;;;;;168.63;68.90;;;102.80;2073.60;;;;;;5075966;28;20447;-68
2021/01/12 05:01:35;;;;;;;179.00;70.70;;;102.80;2073.60;;;;;;5076003;28;20113;-68
2021/01/12 05:04:10;;;;;;;234.98;99.05;;;102.70;2073.60;;;;;;5075965;28;20028;-73
2021/01/12 05:06:41;;;;;;;230.02;97.57;;;102.70;2073.60;;;;;;5075902;28;20389;-68
2021/01/12 05:09:18;;;;;;;278.92;122.75;;;102.70;2073.60;;;;;;5076071;28;20024;-71
2021/01/12 05:11:53;;;;;;;213.00;96.97;;;102.70;2073.60;;;;;;5076028;28;20021;-75
2021/01/12 05:14:27;;;;;;;190.20;76.97;;;102.70;2048.00;;;;;;5075841;28;20048;-71
2021/01/12 05:16:59;;;;;;;186.65;76.43;;;102.70;2073.60;;;;;;5075938;28;20047;-69
2021/01/12 05:19:32;;;;;;;191.13;74.25;;;102.70;2073.60;;;;;;5075831;28;20021;-73
2021/01/12 05:22:11;;;;;;;185.23;72.72;;;102.70;2073.60;;;;;;5075894;28;20024;-68
2021/01/12 05:24:45;;;;;;;172.80;69.65;;;102.70;2073.60;;;;;;5075818;28;20448;-70
2021/01/12 05:27:16;;;;;;;156.73;65.30;;;102.70;2073.60;;;;;;5075584;28;20486;-68
2021/01/12 05:29:50;;;;;;;154.93;63.33;;;102.70;2048.00;;;;;;5075613;28;20485;-74
2021/01/12 05:32:23;;;;;;;151.40;61.65;;;102.70;2048.00;;;;;;5075476;28;20086;-68
2021/01/12 05:35:02;;;;;;;155.07;60.83;;;102.70;2048.00;;;;;;5075580;28;20031;-70
2021/01/12 05:37:34;;;;;;;127.45;54.70;;;102.70;2048.00;;;;;;5075309;28;20032;-73
2021/01/12 05:40:07;;;;;;;134.27;53.75;;;102.70;2048.00;;;;;;5075436;28;20365;-73
2021/01/12 05:42:42;;;;;;;146.65;56.13;;;102.70;2048.00;;;;;;5075426;28;20031;-68
2021/01/12 05:45:14;;;;;;;149.07;58.28;;;102.70;2048.00;;;;;;5075382;28;20054;-71
2021/01/12 05:47:54;;;;;;;417.15;174.07;;;102.70;2073.60;;;;;;5075287;28;20060;-74
2021/01/12 05:50:28;;;;;;;362.98;148.20;;;102.70;2073.60;;;;;;5075427;28;20098;-68
2021/01/12 05:52:59;;;;;;;;;;;102.70;2073.60;;;;;;5075556;28;20033;-68
2021/01/12 05:55:53;;;;;;;310.38;124.90;;;102.70;2073.60;;;;;;5075002;28;19987;-76
2021/01/12 05:58:32;;;;;;;308.33;129.73;;;102.70;2073.60;;;;;;5074638;28;20035;-75
2021/01/12 06:01:04;;;;;;;562.15;256.85;;;102.60;2073.60;;;;;;5074933;28;20024;-68
2021/01/12 06:03:40;;;;;;;426.13;182.50;;;102.70;2073.60;;;;;;5074705;28;20027;-69
2021/01/12 06:06:12;;;;;;;293.08;118.90;;;102.70;2073.60;;;;;;5074516;28;20509;-70
2021/01/12 06:08:44;;;;;;;428.27;218.55;;;102.70;2073.60;;;;;;5073416;28;20044;-67
2021/01/12 06:11:17;;;;;;;362.45;176.93;;;102.70;2073.60;;;;;;5074775;28;20094;-70
2021/01/12 06:14:02;;;;;;;327.50;155.18;;;102.70;2073.60;;;;;;5074896;28;20043;-72
2021/01/12 06:16:37;;;;;;;315.00;147.23;;;102.70;2073.60;;;;;;5074884;28;20024;-68
2021/01/12 06:19:10;;;;;;;373.67;186.07;;;102.70;2048.00;;;;;;5074511;28;20036;-68
2021/01/12 06:21:59;;;;;;;401.10;211.82;;;102.70;2048.00;;;;;;5074781;28;20025;-69
2021/01/12 06:24:33;;;;;;;356.42;178.18;;;102.70;2048.00;;;;;;5074720;28;20097;-69
2021/01/12 06:27:32;;;;;;;321.98;155.52;;;102.70;2048.00;;;;;;5074775;28;20028;-68
2021/01/12 06:30:10;;;;;;;322.67;161.45;;;102.80;2048.00;;;;;;5072937;28;20429;-76
2021/01/12 06:32:38;;;;;;;244.90;115.47;;;102.70;2048.00;;;;;;5074285;28;20363;-67
2021/01/12 06:35:09;;;;;;;234.32;111.13;;;102.70;2073.60;;;;;;5074332;28;20024;-66
2021/01/12 06:37:43;;;;;;;308.15;158.10;;;102.70;2048.00;;;;;;5074396;28;20029;-67
2021/01/12 06:40:11;;;;;;;233.02;112.97;;;102.70;2048.00;;;;;;5074356;28;20028;-67
2021/01/12 06:42:40;;;;;;;209.55;106.05;;;102.70;2048.00;;;;;;5074006;28;20033;-67
2021/01/12 06:45:10;;;;;;;205.02;105.07;;;102.70;2048.00;;;;;;5074279;28;20070;-67
2021/01/12 06:47:42;;;;;;;218.18;114.15;;;102.70;2048.00;;;;;;5074053;28;20036;-69
2021/01/12 06:50:16;;;;;;;218.02;109.72;;;102.70;2048.00;;;;;;5073804;28;20382;-70
2021/01/12 06:52:49;;;;;;;176.55;85.10;;;102.70;2048.00;;;;;;5074017;28;20115;-68
2021/01/12 06:55:22;;;;;;;183.40;86.55;;;102.70;2048.00;;;;;;5072696;28;20067;-69
2021/01/12 06:57:58;;;;;;;276.15;136.43;;;102.70;2048.00;;;;;;5074106;28;20032;-69
2021/01/12 07:00:31;;;;;;;271.33;138.85;;;102.70;2048.00;;;;;;5073958;28;20043;-69
2021/01/12 07:03:04;;;;;;;220.40;117.18;;;102.70;2048.00;;;;;;5074036;28;20028;-70
2021/01/12 07:05:42;;;;;;;229.60;113.32;;;102.70;2048.00;;;;;;5073592;28;20508;-69
2021/01/12 07:08:10;;;;;;;196.82;92.65;;;102.60;2073.60;;;;;;5073409;28;20032;-70
2021/01/12 07:10:55;;;;;;;209.52;114.30;;;102.70;2073.60;;;;;;5073112;28;20435;-69
2021/01/12 07:13:24;;;;;;;169.93;84.30;;;102.70;2048.00;;;;;;5073991;28;20047;-69
2021/01/12 07:15:54;;;;;;;220.52;104.82;;;102.70;2048.00;;;;;;5073517;28;20025;-68
2021/01/12 07:18:24;;;;;;;324.10;155.45;;;102.70;2048.00;;;;;;5073466;28;20025;-69
2021/01/12 07:20:52;;;;;;;319.30;163.20;;;102.70;2048.00;;;;;;5073486;28;20020;-69
2021/01/12 07:23:25;;;;;;;297.17;155.18;;;102.70;2048.00;;;;;;5073528;28;20025;-69
2021/01/12 07:26:07;;;;;;;255.82;136.90;;;102.70;2048.00;;;;;;5069621;28;20466;-69
2021/01/12 07:28:46;;;;;;;230.38;126.20;;;102.70;2048.00;;;;;;5072886;28;20060;-69
2021/01/12 07:31:12;;;;;;;190.25;101.32;;;102.60;2048.00;;;;;;5072982;28;20028;-69
2021/01/12 07:33:44;;;;;;;165.35;81.38;;;102.60;2048.00;;;;;;5072353;28;20093;-68
2021/01/12 07:36:16;;;;;;;177.50;99.60;;;102.70;2048.00;;;;;;5072271;28;20025;-69
2021/01/12 07:38:50;;;;;;;210.93;111.18;;;102.60;2048.00;;;;;;5072816;28;20033;-70
2021/01/12 07:41:22;;;;;;;171.43;77.78;;;102.60;2048.00;;;;;;5072360;28;20025;-73
2021/01/12 07:43:53;;;;;;;162.75;75.70;;;102.60;2048.00;;;;;;5072656;28;20032;-70
2021/01/12 07:46:30;;;;;;;163.65;80.82;;;102.60;2073.60;;;;;;5071569;28;20188;-69
2021/01/12 07:49:02;;;;;;;166.45;85.10;;;102.60;2073.60;;;;;;5072185;28;20078;-70
2021/01/12 07:51:31;;;;;;;171.00;84.70;;;102.60;2073.60;;;;;;5072644;28;20034;-69
2021/01/12 07:53:58;;;;;;;161.90;80.40;;;102.60;2073.60;;;;;;5072565;28;20021;-70
2021/01/12 07:56:29;;;;;;;148.98;71.80;;;102.70;2073.60;;;;;;5072163;28;20095;-70
2021/01/12 07:59:00;;;;;;;154.48;68.15;;;102.70;2073.60;;;;;;5072656;28;20027;-71
2021/01/12 08:01:32;;;;;;;153.55;68.40;;;102.70;2073.60;;;;;;5073365;28;20021;-70
2021/01/12 08:04:04;;;;;;;237.05;115.38;;;102.70;2073.60;;;;;;5073455;28;20029;-70
2021/01/12 08:06:48;;;;;;;186.63;85.28;;;102.70;2073.60;;;;;;5073040;28;20193;-70
2021/01/12 08:09:24;;;;;;;169.30;76.03;;;102.80;2048.00;;;;;;5073112;28;20025;-70
2021/01/12 08:12:04;;;;;;;161.05;70.57;;;102.80;2048.00;;;;;;5073301;28;20351;-70
2021/01/12 08:14:36;;;;;;;147.82;64.97;;;102.80;2048.00;;;;;;5073107;28;20032;-70
2021/01/12 08:17:08;;;;;;;189.93;82.00;;;102.80;2048.00;;;;;;5073184;28;20023;-71
2021/01/12 08:19:40;;;;;;;211.45;109.78;;;102.80;2048.00;;;;;;5073183;28;20039;-71
2021/01/12 08:22:16;;;;;;;169.73;91.38;;;102.90;2048.00;;;;;;5076386;28;20485;-71
2021/01/12 08:24:49;;;;;;;149.38;78.18;;;102.90;2048.00;;;;;;5076863;28;20024;-71
2021/01/12 08:27:26;;;;;;;100.70;53.30;;;102.90;2048.00;;;;;;5076860;28;20036;-70
2021/01/12 08:30:13;;;;;;;136.68;78.07;;;102.90;2022.40;;;;;;5076631;28;20074;-70
2021/01/12 08:33:03;;;;;;;145.77;81.95;;;102.90;2048.00;;;;;;5076590;28;20478;-70
2021/01/12 08:35:36;;;;;;;156.27;87.00;;;102.90;2048.00;;;;;;5076496;28;20536;-70
2021/01/12 08:38:12;;;;;;;148.87;81.67;;;102.90;2022.40;;;;;;5076422;28;20025;-71
2021/01/12 08:40:48;;;;;;;129.40;70.93;;;102.90;2048.00;;;;;;5076526;28;20257;-71
2021/01/12 08:43:27;;;;;;;123.45;67.38;;;102.90;2022.40;;;;;;5076477;28;20028;-71
2021/01/12 08:46:11;;;;;;;153.95;74.90;;;102.90;2022.40;;;;;;5075054;28;20466;-71
2021/01/12 08:48:55;;;;;;;158.27;76.05;;;102.90;2022.40;;;;;;5076359;28;20169;-71
2021/01/12 08:51:30;;;;;;;151.38;71.47;;;102.90;2022.40;;;;;;5075832;28;20025;-71
2021/01/12 08:54:03;;;;;;;159.23;75.93;;;102.90;2048.00;;;;;;5075813;28;20157;-70
2021/01/12 08:56:34;;;;;;;160.88;77.65;;;102.90;2048.00;;;;;;5076393;28;20051;-71
2021/01/12 08:59:07;;;;;;;173.52;76.35;;;102.90;2048.00;;;;;;5076347;28;20051;-71
2021/01/12 09:01:42;;;;;;;182.13;93.35;;;102.90;2048.00;;;;;;5076103;28;20013;-71
2021/01/12 09:04:11;;;;;;;;;;;102.90;2022.40;;;;;;5072854;28;20107;-70
2021/01/12 09:06:46;;;;;;;177.25;88.18;;;102.90;2022.40;;;;;;5073372;28;19917;-70
2021/01/12 09:09:17;;;;;;;155.35;75.53;;;102.90;2048.00;;;;;;5074299;28;20111;-70
2021/01/12 09:11:49;;;;;;;169.95;81.45;;;102.90;2048.00;;;;;;5072699;28;20478;-70
2021/01/12 09:14:20;;;;;;;189.18;87.57;;;102.90;2048.00;;;;;;5073963;28;20067;-70
2021/01/12 09:17:07;;;;;;;171.82;71.63;;;102.90;2048.00;;;;;;5074506;28;20028;-71
2021/01/12 09:19:38;;;;;;;178.23;98.00;;;102.90;2022.40;;;;;;5073882;28;20028;-70
2021/01/12 09:22:15;;;;;;;234.82;127.88;;;102.90;2022.40;;;;;;5074070;28;20382;-70
2021/01/12 09:24:53;;;;;;;258.73;140.48;;;102.90;2048.00;;;;;;5073373;28;20113;-70
2021/01/12 09:27:27;;;;;;;307.02;181.55;;;102.90;2022.40;;;;;;5072802;28;20032;-70
2021/01/12 09:29:56;;;;;;;248.88;144.73;;;102.90;2022.40;;;;;;5074183;28;20025;-71
2021/01/12 09:32:35;;;;;;;207.18;121.93;;;102.90;2022.40;;;;;;5073181;28;20067;-70
2021/01/12 09:35:09;;;;;;;168.25;96.50;;;102.90;2022.40;;;;;;5073290;28;20103;-70
2021/01/12 09:37:41;;;;;;;138.40;75.22;;;102.90;2048.00;;;;;;5073813;28;20130;-70
2021/01/12 09:40:13;;;;;;;121.10;61.63;;;102.90;2048.00;;;;;;5072882;28;20033;-69
2021/01/12 09:42:47;;;;;;;101.07;48.85;;;102.90;2048.00;;;;;;5073798;28;20378;-70
2021/01/12 09:45:19;;;;;;;88.78;45.38;;;103.00;2022.40;;;;;;5074012;28;20024;-70
2021/01/12 09:47:53;;;;;;;90.07;41.55;;;103.00;2022.40;;;;;;5074202;28;20036;-70
2021/01/12 09:50:25;;;;;;;96.67;43.43;;;103.00;2022.40;;;;;;5072094;28;20332;-71
2021/01/12 09:52:50;;;;;;;107.43;47.22;;;103.10;2022.40;;;;;;5073170;28;20277;-69
2021/01/12 09:55:22;;;;;;;103.97;47.15;;;103.10;2022.40;;;;;;5073503;28;20029;-70
2021/01/12 09:57:54;;;;;;;98.25;45.10;;;103.10;2022.40;;;;;;5073347;28;20120;-70
2021/01/12 10:00:22;;;;;;;92.97;43.45;;;103.10;1996.80;;;;;;5072475;28;20020;-69
2021/01/12 10:02:53;;;;;;;112.88;56.85;;;103.10;1996.80;;;;;;5071421;28;20036;-70
2021/01/12 10:05:22;;;;;;;296.70;117.32;;;103.10;1996.80;;;;;;5072037;28;20067;-72
2021/01/12 10:07:51;;;;;;;403.30;168.63;;;103.10;1996.80;;;;;;5072234;28;20032;-70
2021/01/12 10:10:20;;;;;;;253.95;117.20;;;103.10;2022.40;;;;;;5072342;28;20073;-70
2021/01/12 10:12:45;;;;;;;198.10;86.07;;;103.10;2022.40;;;;;;5072404;28;20031;-71
2021/01/12 10:15:16;;;;;;;160.82;70.53;;;103.10;2022.40;;;;;;5069680;28;20020;-70
2021/01/12 10:17:45;;;;;;;254.88;145.45;;;103.10;2022.40;;;;;;5071350;28;20051;-69
2021/01/12 10:20:14;;;;;;;281.30;164.50;;;103.10;2022.40;;;;;;5066583;28;20020;-70
2021/01/12 10:22:44;;;;;;;224.00;124.22;;;103.10;2022.40;;;;;;5071914;28;20024;-70
2021/01/12 10:25:12;;;;;;;164.82;82.07;;;103.10;1996.80;;;;;;5071549;28;20029;-69
2021/01/12 10:27:41;;;;;;;124.00;57.92;;;103.10;2022.40;;;;;;5071753;28;20097;-70
2021/01/12 10:30:12;;;;;;;108.03;50.45;;;103.20;1996.80;;;;;;5071895;28;20020;-69
2021/01/12 10:32:46;;;;;;;106.55;45.63;;;103.20;1996.80;;;;;;5071225;28;20047;-70
2021/01/12 10:35:14;;;;;;;102.60;46.40;;;103.20;1996.80;;;;;;5071336;28;20032;-69
2021/01/12 10:37:46;;;;;;;127.40;55.58;;;103.20;1996.80;;;;;;5072233;28;20021;-69
2021/01/12 10:40:29;;;;;;;158.57;63.08;;;103.10;1996.80;;;;;;5068836;28;20520;-69
2021/01/12 10:43:00;;;;;;;157.10;71.28;;;103.10;2022.40;;;;;;5069367;28;20478;-69
2021/01/12 10:45:27;;;;;;;154.88;75.68;;;103.10;1996.80;;;;;;5070823;28;20028;-70
2021/01/12 10:47:57;;;;;;;131.50;63.85;;;103.10;2022.40;;;;;;5068139;28;20377;-69
2021/01/12 10:50:23;;;;;;;173.52;82.78;;;103.10;1996.80;;;;;;5071193;28;20025;-71
2021/01/12 10:52:54;;;;;;;165.13;79.32;;;103.10;1996.80;;;;;;5071577;28;20040;-69
2021/01/12 10:55:25;;;;;;;142.88;69.18;;;103.10;2022.40;;;;;;5070555;28;20029;-70
2021/01/12 10:57:57;;;;;;;117.00;57.78;;;103.10;1996.80;;;;;;5074044;28;20020;-70
2021/01/12 11:00:26;;;;;;;115.35;56.75;;;103.20;1996.80;;;;;;5071564;28;20036;-71
2021/01/12 11:02:54;;;;;;;104.35;54.05;;;103.20;1996.80;;;;;;5072401;28;20052;-69
2021/01/12 11:05:25;;;;;;;110.93;55.53;;;103.20;1996.80;;;;;;5069559;28;20055;-70
2021/01/12 11:07:57;;;;;;;114.20;58.08;;;103.20;1996.80;;;;;;5066617;28;20440;-69
2021/01/12 11:10:29;;;;;;;107.75;53.03;;;103.20;1996.80;;;;;;5073722;28;20070;-70
2021/01/12 11:13:02;;;;;;;115.15;59.17;;;103.20;1996.80;;;;;;5073976;28;20397;-70
2021/01/12 11:15:39;;;;;;;95.70;49.88;;;103.20;1996.80;;;;;;5072546;28;20055;-70
2021/01/12 11:18:11;;;;;;;115.50;53.63;;;103.20;1971.20;;;;;;5073904;28;20035;-70
2021/01/12 11:20:43;;;;;;;99.15;51.17;;;103.20;1971.20;;;;;;5073772;28;20090;-70
2021/01/12 11:23:14;;;;;;;96.53;49.28;;;103.20;1971.20;;;;;;5073768;28;20484;-70
2021/01/12 11:25:46;;;;;;;112.90;55.25;;;103.20;1971.20;;;;;;5073003;28;20086;-69
2021/01/12 11:28:18;;;;;;;116.10;56.70;;;103.20;1971.20;;;;;;5073518;28;20036;-70
2021/01/12 11:30:50;;;;;;;119.47;57.92;;;103.20;1971.20;;;;;;5073810;28;20025;-69
2021/01/12 11:33:21;;;;;;;106.60;50.20;;;103.30;1971.20;;;;;;5073125;28;20028;-70
2021/01/12 11:35:53;;;;;;;133.52;64.82;;;103.30;1971.20;;;;;;5073511;28;20455;-69
2021/01/12 11:38:24;;;;;;;126.35;63.53;;;103.30;1971.20;;;;;;5073552;28;20024;-70
2021/01/12 11:40:50;;;;;;;105.35;49.45;;;103.30;1971.20;;;;;;5073063;28;20033;-69
2021/01/12 11:43:22;;;;;;;100.00;47.38;;;128.00;1996.80;;;;;;5071907;28;20020;-69
2021/01/12 11:45:50;;;;;;;122.65;56.78;;;128.00;1996.80;;;;;;5069772;28;20052;-69
2021/01/12 11:48:18;;;;;;;106.43;50.20;;;128.00;1971.20;;;;;;5071833;28;20036;-69
2021/01/12 11:50:49;;;;;;;126.55;56.53;;;128.00;1971.20;;;;;;5070083;28;20055;-69
2021/01/12 11:53:21;;;;;;;131.13;59.63;;;128.00;1971.20;;;;;;5073404;28;20040;-70
2021/01/12 11:55:54;;;;;;;147.65;68.72;;;103.30;1971.20;;;;;;5074703;28;20456;-70
2021/01/12 11:58:25;;;;;;;140.15;64.55;;;103.30;1971.20;;;;;;5077439;28;20035;-69
2021/01/12 12:00:57;;;;;;;121.18;54.95;;;103.30;1971.20;;;;;;5077366;28;20024;-69
2021/01/12 12:03:29;;;;;;;124.38;58.97;;;128.00;1996.80;;;;;;5077022;28;20473;-70
2021/01/12 12:06:00;;;;;;;116.80;56.58;;;103.30;1945.60;;;;;;5077164;28;20040;-69
2021/01/12 12:08:33;;;;;;;129.60;64.78;;;103.30;1945.60;;;;;;5076900;28;20032;-69
2021/01/12 12:11:05;;;;;;;130.27;67.43;;;103.30;1945.60;;;;;;5077157;28;20116;-69
2021/01/12 12:13:43;;;;;;;140.65;72.07;;;103.30;1945.60;;;;;;5076833;28;20029;-69
2021/01/12 12:16:16;;;;;;;143.68;82.47;;;128.00;1971.20;;;;;;5070689;28;20161;-67